sensor_id;sensor_type;location;lat;lon;timestamp;temperature;humidity
3921;DHT22;1975;49.356;6.816;2023-03-17T00:00:46;8.10;99.90
3921;DHT22;1975;49.356;6.816;2023-03-17T00:03:18;8.10;99.90
3921;DHT22;1975;49.356;6.816;2023-03-17T00:05:44;8.10;99.90
3921;DHT22;1975;49.356;6.816;2023-03-17T00:08:12;8.10;99.90
3921;DHT22;1975;49.356;6.816;2023-03-17T00:10:39;8.00;99.90
3921;DHT22;1975;49.356;6.816;2023-03-17T00:13:05;8.10;99.90
3921;DHT22;1975;49.356;6.816;2023-03-17T00:15:31;8.10;99.90
3921;DHT22;1975;49.356;6.816;2023-03-17T00:17:56;8.00;99.90
3921;DHT22;1975;49.356;6.816;2023-03-17T00:20:26;8.00;99.90
3921;DHT22;1975;49.356;6.816;2023-03-17T00:22:53;8.00;99.90
3921;DHT22;1975;49.356;6.816;2023-03-17T00:25:28;8.00;99.90
3921;DHT22;1975;49.356;6.816;2023-03-17T00:27:54;8.00;99.90
3921;DHT22;1975;49.356;6.816;2023-03-17T00:30:21;8.00;99.90
3921;DHT22;1975;49.356;6.816;2023-03-17T00:32:50;8.00;99.90
3921;DHT22;1975;49.356;6.816;2023-03-17T00:35:18;8.00;99.90
3921;DHT22;1975;49.356;6.816;2023-03-17T00:37:43;8.00;99.90
3921;DHT22;1975;49.356;6.816;2023-03-17T00:40:29;8.00;99.90
3921;DHT22;1975;49.356;6.816;2023-03-17T00:42:55;8.00;99.90
3921;DHT22;1975;49.356;6.816;2023-03-17T00:45:22;8.00;99.90
3921;DHT22;1975;49.356;6.816;2023-03-17T00:47:48;8.00;99.90
3921;DHT22;1975;49.356;6.816;2023-03-17T00:50:20;8.00;99.90
3921;DHT22;1975;49.356;6.816;2023-03-17T00:52:47;7.90;99.90
3921;DHT22;1975;49.356;6.816;2023-03-17T00:55:13;7.90;99.90
3921;DHT22;1975;49.356;6.816;2023-03-17T00:57:38;7.90;99.90
3921;DHT22;1975;49.356;6.816;2023-03-17T01:00:05;7.90;99.90
3921;DHT22;1975;49.356;6.816;2023-03-17T01:02:31;7.90;99.90
3921;DHT22;1975;49.356;6.816;2023-03-17T01:04:56;7.90;99.90
3921;DHT22;1975;49.356;6.816;2023-03-17T01:07:22;7.90;99.90
3921;DHT22;1975;49.356;6.816;2023-03-17T01:09:48;7.90;99.90
3921;DHT22;1975;49.356;6.816;2023-03-17T01:12:14;7.90;99.90
3921;DHT22;1975;49.356;6.816;2023-03-17T01:14:39;7.90;99.90
3921;DHT22;1975;49.356;6.816;2023-03-17T01:17:15;7.90;99.90
3921;DHT22;1975;49.356;6.816;2023-03-17T01:19:41;7.90;99.90
3921;DHT22;1975;49.356;6.816;2023-03-17T01:22:07;7.90;99.90
3921;DHT22;1975;49.356;6.816;2023-03-17T01:24:33;7.90;99.90
3921;DHT22;1975;49.356;6.816;2023-03-17T01:26:58;7.90;99.90
3921;DHT22;1975;49.356;6.816;2023-03-17T01:29:24;7.80;99.90
3921;DHT22;1975;49.356;6.816;2023-03-17T01:31:51;7.90;99.90
3921;DHT22;1975;49.356;6.816;2023-03-17T01:34:17;7.80;99.90
3921;DHT22;1975;49.356;6.816;2023-03-17T01:36:43;7.80;99.90
3921;DHT22;1975;49.356;6.816;2023-03-17T01:39:08;7.80;99.90
3921;DHT22;1975;49.356;6.816;2023-03-17T01:41:34;7.80;99.90
3921;DHT22;1975;49.356;6.816;2023-03-17T01:44:00;7.80;99.90
3921;DHT22;1975;49.356;6.816;2023-03-17T01:54:52;7.70;99.90
3921;DHT22;1975;49.356;6.816;2023-03-17T01:57:17;7.80;99.90
3921;DHT22;1975;49.356;6.816;2023-03-17T01:59:47;7.70;99.90
3921;DHT22;1975;49.356;6.816;2023-03-17T02:02:14;7.70;99.90
3921;DHT22;1975;49.356;6.816;2023-03-17T02:04:42;7.70;99.90
3921;DHT22;1975;49.356;6.816;2023-03-17T02:07:07;7.70;99.90
3921;DHT22;1975;49.356;6.816;2023-03-17T02:09:34;7.70;99.90
3921;DHT22;1975;49.356;6.816;2023-03-17T02:12:00;7.70;99.90
3921;DHT22;1975;49.356;6.816;2023-03-17T02:14:26;7.70;99.90
3921;DHT22;1975;49.356;6.816;2023-03-17T02:16:52;7.70;99.90
3921;DHT22;1975;49.356;6.816;2023-03-17T02:19:19;7.70;99.90
3921;DHT22;1975;49.356;6.816;2023-03-17T02:21:46;7.70;99.90
3921;DHT22;1975;49.356;6.816;2023-03-17T02:24:22;7.70;99.90
3921;DHT22;1975;49.356;6.816;2023-03-17T02:26:48;7.60;99.90
3921;DHT22;1975;49.356;6.816;2023-03-17T02:29:15;7.70;99.90
3921;DHT22;1975;49.356;6.816;2023-03-17T02:31:41;7.60;99.90
3921;DHT22;1975;49.356;6.816;2023-03-17T02:34:08;7.60;99.90
3921;DHT22;1975;49.356;6.816;2023-03-17T02:36:33;7.60;99.90
3921;DHT22;1975;49.356;6.816;2023-03-17T02:38:58;7.60;99.90
3921;DHT22;1975;49.356;6.816;2023-03-17T02:41:24;7.60;99.90
3921;DHT22;1975;49.356;6.816;2023-03-17T02:43:49;7.60;99.90
3921;DHT22;1975;49.356;6.816;2023-03-17T02:46:16;7.60;99.90
3921;DHT22;1975;49.356;6.816;2023-03-17T02:48:41;7.60;99.90
3921;DHT22;1975;49.356;6.816;2023-03-17T02:51:07;7.60;99.90
3921;DHT22;1975;49.356;6.816;2023-03-17T02:53:32;7.60;99.90
3921;DHT22;1975;49.356;6.816;2023-03-17T02:55:58;7.60;99.90
3921;DHT22;1975;49.356;6.816;2023-03-17T02:58:23;7.50;99.90
3921;DHT22;1975;49.356;6.816;2023-03-17T03:00:49;7.60;99.90
3921;DHT22;1975;49.356;6.816;2023-03-17T03:03:14;7.50;99.90
3921;DHT22;1975;49.356;6.816;2023-03-17T03:05:40;7.50;99.90
3921;DHT22;1975;49.356;6.816;2023-03-17T03:08:07;7.50;99.90
3921;DHT22;1975;49.356;6.816;2023-03-17T03:10:32;7.50;99.90
3921;DHT22;1975;49.356;6.816;2023-03-17T03:12:58;7.50;99.90
3921;DHT22;1975;49.356;6.816;2023-03-17T03:15:23;7.50;99.90
3921;DHT22;1975;49.356;6.816;2023-03-17T03:17:49;7.50;99.90
3921;DHT22;1975;49.356;6.816;2023-03-17T03:20:14;7.50;99.90
3921;DHT22;1975;49.356;6.816;2023-03-17T03:22:40;7.40;99.90
3921;DHT22;1975;49.356;6.816;2023-03-17T03:25:06;7.50;99.90
3921;DHT22;1975;49.356;6.816;2023-03-17T03:27:32;7.40;99.90
3921;DHT22;1975;49.356;6.816;2023-03-17T03:29:58;7.40;99.90
3921;DHT22;1975;49.356;6.816;2023-03-17T03:32:23;7.40;99.90
3921;DHT22;1975;49.356;6.816;2023-03-17T03:34:49;7.40;99.90
3921;DHT22;1975;49.356;6.816;2023-03-17T03:37:15;7.40;99.90
3921;DHT22;1975;49.356;6.816;2023-03-17T03:39:40;7.40;99.90
3921;DHT22;1975;49.356;6.816;2023-03-17T03:42:06;7.40;99.90
3921;DHT22;1975;49.356;6.816;2023-03-17T03:44:32;7.40;99.90
3921;DHT22;1975;49.356;6.816;2023-03-17T03:46:57;7.40;99.90
3921;DHT22;1975;49.356;6.816;2023-03-17T03:49:22;7.40;99.90
3921;DHT22;1975;49.356;6.816;2023-03-17T03:51:48;7.30;99.90
3921;DHT22;1975;49.356;6.816;2023-03-17T03:54:14;7.30;99.90
3921;DHT22;1975;49.356;6.816;2023-03-17T03:56:39;7.30;99.90
3921;DHT22;1975;49.356;6.816;2023-03-17T03:59:05;7.30;99.90
3921;DHT22;1975;49.356;6.816;2023-03-17T04:01:30;7.30;99.90
3921;DHT22;1975;49.356;6.816;2023-03-17T04:03:56;7.30;99.90
3921;DHT22;1975;49.356;6.816;2023-03-17T04:06:21;7.30;99.90
3921;DHT22;1975;49.356;6.816;2023-03-17T04:08:46;7.30;99.90
3921;DHT22;1975;49.356;6.816;2023-03-17T04:11:12;7.30;99.90
3921;DHT22;1975;49.356;6.816;2023-03-17T04:13:37;7.30;99.90
3921;DHT22;1975;49.356;6.816;2023-03-17T04:16:03;7.30;99.90
3921;DHT22;1975;49.356;6.816;2023-03-17T04:18:28;7.30;99.90
3921;DHT22;1975;49.356;6.816;2023-03-17T04:20:55;7.20;99.90
3921;DHT22;1975;49.356;6.816;2023-03-17T04:23:21;7.30;99.90
3921;DHT22;1975;49.356;6.816;2023-03-17T04:25:48;7.20;99.90
3921;DHT22;1975;49.356;6.816;2023-03-17T04:28:14;7.20;99.90
3921;DHT22;1975;49.356;6.816;2023-03-17T04:30:39;7.20;99.90
3921;DHT22;1975;49.356;6.816;2023-03-17T04:33:05;7.20;99.90
3921;DHT22;1975;49.356;6.816;2023-03-17T04:35:31;7.20;99.90
3921;DHT22;1975;49.356;6.816;2023-03-17T04:37:56;7.20;99.90
3921;DHT22;1975;49.356;6.816;2023-03-17T04:40:22;7.20;99.90
3921;DHT22;1975;49.356;6.816;2023-03-17T04:42:47;7.20;99.90
3921;DHT22;1975;49.356;6.816;2023-03-17T04:45:13;7.20;99.90
3921;DHT22;1975;49.356;6.816;2023-03-17T04:47:39;7.20;99.90
3921;DHT22;1975;49.356;6.816;2023-03-17T04:50:05;7.20;99.90
3921;DHT22;1975;49.356;6.816;2023-03-17T04:52:33;7.10;99.90
3921;DHT22;1975;49.356;6.816;2023-03-17T04:54:58;7.10;99.90
3921;DHT22;1975;49.356;6.816;2023-03-17T04:57:24;7.10;99.90
3921;DHT22;1975;49.356;6.816;2023-03-17T04:59:50;7.10;99.90
3921;DHT22;1975;49.356;6.816;2023-03-17T05:02:15;7.10;99.90
3921;DHT22;1975;49.356;6.816;2023-03-17T05:04:42;7.10;99.90
3921;DHT22;1975;49.356;6.816;2023-03-17T05:07:09;7.10;99.90
3921;DHT22;1975;49.356;6.816;2023-03-17T05:09:35;7.10;99.90
3921;DHT22;1975;49.356;6.816;2023-03-17T05:12:01;7.10;99.90
3921;DHT22;1975;49.356;6.816;2023-03-17T05:14:26;7.10;99.90
3921;DHT22;1975;49.356;6.816;2023-03-17T05:16:52;7.10;99.90
3921;DHT22;1975;49.356;6.816;2023-03-17T05:19:17;7.00;99.90
3921;DHT22;1975;49.356;6.816;2023-03-17T05:21:43;7.00;99.90
3921;DHT22;1975;49.356;6.816;2023-03-17T05:24:08;7.10;99.90
3921;DHT22;1975;49.356;6.816;2023-03-17T05:26:34;7.10;99.90
3921;DHT22;1975;49.356;6.816;2023-03-17T05:29:00;7.00;99.90
3921;DHT22;1975;49.356;6.816;2023-03-17T05:31:25;7.00;99.90
3921;DHT22;1975;49.356;6.816;2023-03-17T05:33:51;7.00;99.90
3921;DHT22;1975;49.356;6.816;2023-03-17T05:36:16;7.00;99.90
3921;DHT22;1975;49.356;6.816;2023-03-17T05:38:42;7.00;99.90
3921;DHT22;1975;49.356;6.816;2023-03-17T05:41:08;7.00;99.90
3921;DHT22;1975;49.356;6.816;2023-03-17T05:43:35;7.00;99.90
3921;DHT22;1975;49.356;6.816;2023-03-17T05:46:01;7.00;99.90
3921;DHT22;1975;49.356;6.816;2023-03-17T05:48:26;7.00;99.90
3921;DHT22;1975;49.356;6.816;2023-03-17T05:50:52;6.90;99.90
3921;DHT22;1975;49.356;6.816;2023-03-17T05:53:17;7.00;99.90
3921;DHT22;1975;49.356;6.816;2023-03-17T05:55:43;7.00;99.90
3921;DHT22;1975;49.356;6.816;2023-03-17T05:58:08;6.90;99.90
3921;DHT22;1975;49.356;6.816;2023-03-17T06:00:34;6.90;99.90
3921;DHT22;1975;49.356;6.816;2023-03-17T06:03:00;6.90;99.90
3921;DHT22;1975;49.356;6.816;2023-03-17T06:05:26;6.90;99.90
3921;DHT22;1975;49.356;6.816;2023-03-17T06:07:52;6.90;99.90
3921;DHT22;1975;49.356;6.816;2023-03-17T06:10:17;6.90;99.90
3921;DHT22;1975;49.356;6.816;2023-03-17T06:12:43;6.90;99.90
3921;DHT22;1975;49.356;6.816;2023-03-17T06:15:08;6.90;99.90
3921;DHT22;1975;49.356;6.816;2023-03-17T06:17:34;6.90;99.90
3921;DHT22;1975;49.356;6.816;2023-03-17T06:20:00;6.90;99.90
3921;DHT22;1975;49.356;6.816;2023-03-17T06:22:26;6.90;99.90
3921;DHT22;1975;49.356;6.816;2023-03-17T06:24:52;6.90;99.90
3921;DHT22;1975;49.356;6.816;2023-03-17T06:27:17;6.90;99.90
3921;DHT22;1975;49.356;6.816;2023-03-17T06:29:43;6.90;99.90
3921;DHT22;1975;49.356;6.816;2023-03-17T06:32:08;6.90;99.90
3921;DHT22;1975;49.356;6.816;2023-03-17T06:34:34;6.90;99.90
3921;DHT22;1975;49.356;6.816;2023-03-17T06:36:59;6.90;99.90
3921;DHT22;1975;49.356;6.816;2023-03-17T06:39:25;6.90;99.90
3921;DHT22;1975;49.356;6.816;2023-03-17T06:41:50;6.90;99.90
3921;DHT22;1975;49.356;6.816;2023-03-17T06:44:16;6.90;99.90
3921;DHT22;1975;49.356;6.816;2023-03-17T06:46:42;6.90;99.90
3921;DHT22;1975;49.356;6.816;2023-03-17T06:49:07;6.90;99.90
3921;DHT22;1975;49.356;6.816;2023-03-17T06:51:33;6.90;99.90
3921;DHT22;1975;49.356;6.816;2023-03-17T06:54:00;6.90;99.90
3921;DHT22;1975;49.356;6.816;2023-03-17T06:56:26;6.90;99.90
3921;DHT22;1975;49.356;6.816;2023-03-17T06:58:51;6.90;99.90
3921;DHT22;1975;49.356;6.816;2023-03-17T07:01:18;6.90;99.90
3921;DHT22;1975;49.356;6.816;2023-03-17T07:03:43;6.90;99.90
3921;DHT22;1975;49.356;6.816;2023-03-17T07:06:09;6.80;99.90
3921;DHT22;1975;49.356;6.816;2023-03-17T07:08:34;6.90;99.90
3921;DHT22;1975;49.356;6.816;2023-03-17T07:11:00;6.90;99.90
3921;DHT22;1975;49.356;6.816;2023-03-17T07:13:28;6.90;99.90
3921;DHT22;1975;49.356;6.816;2023-03-17T07:15:53;6.90;99.90
3921;DHT22;1975;49.356;6.816;2023-03-17T07:18:19;6.90;99.90
3921;DHT22;1975;49.356;6.816;2023-03-17T07:20:44;6.90;99.90
3921;DHT22;1975;49.356;6.816;2023-03-17T07:23:20;6.90;99.90
3921;DHT22;1975;49.356;6.816;2023-03-17T07:25:46;6.90;99.90
3921;DHT22;1975;49.356;6.816;2023-03-17T07:28:12;6.90;99.90
3921;DHT22;1975;49.356;6.816;2023-03-17T07:30:38;6.90;99.90
3921;DHT22;1975;49.356;6.816;2023-03-17T07:33:05;6.90;99.90
3921;DHT22;1975;49.356;6.816;2023-03-17T07:35:30;6.90;99.90
3921;DHT22;1975;49.356;6.816;2023-03-17T07:37:57;6.90;99.90
3921;DHT22;1975;49.356;6.816;2023-03-17T07:40:23;6.90;99.90
3921;DHT22;1975;49.356;6.816;2023-03-17T07:42:48;7.00;99.90
3921;DHT22;1975;49.356;6.816;2023-03-17T07:45:14;7.00;99.90
3921;DHT22;1975;49.356;6.816;2023-03-17T07:47:40;7.00;99.90
3921;DHT22;1975;49.356;6.816;2023-03-17T07:50:05;7.00;99.90
3921;DHT22;1975;49.356;6.816;2023-03-17T07:52:31;7.00;99.90
3921;DHT22;1975;49.356;6.816;2023-03-17T07:54:57;7.00;99.90
3921;DHT22;1975;49.356;6.816;2023-03-17T07:57:22;7.00;99.90
3921;DHT22;1975;49.356;6.816;2023-03-17T07:59:48;7.00;99.90
3921;DHT22;1975;49.356;6.816;2023-03-17T08:02:15;7.00;99.90
3921;DHT22;1975;49.356;6.816;2023-03-17T08:04:41;7.00;99.90
3921;DHT22;1975;49.356;6.816;2023-03-17T08:07:07;7.00;99.90
3921;DHT22;1975;49.356;6.816;2023-03-17T08:09:32;7.10;99.90
3921;DHT22;1975;49.356;6.816;2023-03-17T08:11:58;7.10;99.90
3921;DHT22;1975;49.356;6.816;2023-03-17T08:14:23;7.10;99.90
3921;DHT22;1975;49.356;6.816;2023-03-17T08:16:49;7.10;99.90
3921;DHT22;1975;49.356;6.816;2023-03-17T08:19:14;7.10;99.90
3921;DHT22;1975;49.356;6.816;2023-03-17T08:21:40;7.10;99.90
3921;DHT22;1975;49.356;6.816;2023-03-17T08:24:06;7.10;99.90
3921;DHT22;1975;49.356;6.816;2023-03-17T08:26:31;7.10;99.90
3921;DHT22;1975;49.356;6.816;2023-03-17T08:28:57;7.10;99.90
3921;DHT22;1975;49.356;6.816;2023-03-17T08:31:23;7.10;99.90
3921;DHT22;1975;49.356;6.816;2023-03-17T08:33:51;7.10;99.90
3921;DHT22;1975;49.356;6.816;2023-03-17T08:36:18;7.10;99.90
3921;DHT22;1975;49.356;6.816;2023-03-17T08:38:45;7.10;99.90
3921;DHT22;1975;49.356;6.816;2023-03-17T08:41:12;7.10;99.90
3921;DHT22;1975;49.356;6.816;2023-03-17T08:43:38;7.10;99.90
3921;DHT22;1975;49.356;6.816;2023-03-17T08:46:14;7.20;99.90
3921;DHT22;1975;49.356;6.816;2023-03-17T08:48:41;7.20;99.90
3921;DHT22;1975;49.356;6.816;2023-03-17T08:51:07;7.20;99.90
3921;DHT22;1975;49.356;6.816;2023-03-17T08:53:32;7.20;99.90
3921;DHT22;1975;49.356;6.816;2023-03-17T08:55:59;7.20;99.90
3921;DHT22;1975;49.356;6.816;2023-03-17T08:58:25;7.20;99.90
3921;DHT22;1975;49.356;6.816;2023-03-17T09:00:50;7.20;99.90
3921;DHT22;1975;49.356;6.816;2023-03-17T09:03:16;7.30;99.90
3921;DHT22;1975;49.356;6.816;2023-03-17T09:05:42;7.30;99.90
3921;DHT22;1975;49.356;6.816;2023-03-17T09:08:09;7.30;99.90
3921;DHT22;1975;49.356;6.816;2023-03-17T09:10:34;7.30;99.90
3921;DHT22;1975;49.356;6.816;2023-03-17T09:13:00;7.30;99.90
3921;DHT22;1975;49.356;6.816;2023-03-17T09:15:31;7.30;99.90
3921;DHT22;1975;49.356;6.816;2023-03-17T09:17:58;7.30;99.90
3921;DHT22;1975;49.356;6.816;2023-03-17T09:20:23;7.30;99.90
3921;DHT22;1975;49.356;6.816;2023-03-17T09:22:49;7.30;99.90
3921;DHT22;1975;49.356;6.816;2023-03-17T09:25:15;7.30;99.90
3921;DHT22;1975;49.356;6.816;2023-03-17T09:27:41;7.40;99.90
3921;DHT22;1975;49.356;6.816;2023-03-17T09:30:07;7.40;99.90
3921;DHT22;1975;49.356;6.816;2023-03-17T09:32:34;7.40;99.90
3921;DHT22;1975;49.356;6.816;2023-03-17T09:35:00;7.40;99.90
3921;DHT22;1975;49.356;6.816;2023-03-17T09:37:26;7.40;99.90
3921;DHT22;1975;49.356;6.816;2023-03-17T09:39:51;7.40;99.90
3921;DHT22;1975;49.356;6.816;2023-03-17T09:42:23;7.40;99.90
3921;DHT22;1975;49.356;6.816;2023-03-17T09:45:01;7.50;99.90
3921;DHT22;1975;49.356;6.816;2023-03-17T09:47:50;7.50;99.90
3921;DHT22;1975;49.356;6.816;2023-03-17T09:50:27;7.50;99.90
3921;DHT22;1975;49.356;6.816;2023-03-17T09:52:56;7.50;99.90
3921;DHT22;1975;49.356;6.816;2023-03-17T09:55:26;7.50;99.90
3921;DHT22;1975;49.356;6.816;2023-03-17T09:57:53;7.50;99.90
3921;DHT22;1975;49.356;6.816;2023-03-17T10:00:20;7.60;99.90
3921;DHT22;1975;49.356;6.816;2023-03-17T10:02:50;7.60;99.90
3921;DHT22;1975;49.356;6.816;2023-03-17T10:05:27;7.60;99.90
3921;DHT22;1975;49.356;6.816;2023-03-17T10:11:10;7.60;99.90
3921;DHT22;1975;49.356;6.816;2023-03-17T10:13:14;7.60;99.90
3921;DHT22;1975;49.356;6.816;2023-03-17T10:15:46;7.70;99.90
3921;DHT22;1975;49.356;6.816;2023-03-17T10:18:13;7.60;99.90
3921;DHT22;1975;49.356;6.816;2023-03-17T10:20:53;7.70;99.90
3921;DHT22;1975;49.356;6.816;2023-03-17T10:23:20;7.70;99.90
3921;DHT22;1975;49.356;6.816;2023-03-17T10:25:48;7.70;99.90
3921;DHT22;1975;49.356;6.816;2023-03-17T10:28:22;7.70;99.90
3921;DHT22;1975;49.356;6.816;2023-03-17T10:30:48;7.70;99.90
3921;DHT22;1975;49.356;6.816;2023-03-17T10:33:14;7.80;99.90
3921;DHT22;1975;49.356;6.816;2023-03-17T10:35:40;7.80;99.90
3921;DHT22;1975;49.356;6.816;2023-03-17T10:38:21;7.80;99.90
3921;DHT22;1975;49.356;6.816;2023-03-17T10:40:57;7.80;99.90
3921;DHT22;1975;49.356;6.816;2023-03-17T10:43:27;7.80;99.90
3921;DHT22;1975;49.356;6.816;2023-03-17T10:46:03;7.90;99.90
3921;DHT22;1975;49.356;6.816;2023-03-17T10:48:29;7.90;99.90
3921;DHT22;1975;49.356;6.816;2023-03-17T10:50:56;7.90;99.90
3921;DHT22;1975;49.356;6.816;2023-03-17T10:53:23;7.90;99.90
3921;DHT22;1975;49.356;6.816;2023-03-17T10:55:53;7.90;99.90
3921;DHT22;1975;49.356;6.816;2023-03-17T11:00:56;8.00;99.90
3921;DHT22;1975;49.356;6.816;2023-03-17T11:03:23;8.00;99.90
3921;DHT22;1975;49.356;6.816;2023-03-17T11:05:53;8.00;99.90
3921;DHT22;1975;49.356;6.816;2023-03-17T11:08:19;8.00;99.90
3921;DHT22;1975;49.356;6.816;2023-03-17T11:10:45;8.00;99.90
3921;DHT22;1975;49.356;6.816;2023-03-17T11:13:17;8.10;99.90
3921;DHT22;1975;49.356;6.816;2023-03-17T11:15:51;8.10;99.90
3921;DHT22;1975;49.356;6.816;2023-03-17T11:18:20;8.10;99.90
3921;DHT22;1975;49.356;6.816;2023-03-17T11:25:48;8.10;99.90
3921;DHT22;1975;49.356;6.816;2023-03-17T11:28:54;8.50;99.90
3921;DHT22;1975;49.356;6.816;2023-03-17T11:31:24;8.50;99.90
3921;DHT22;1975;49.356;6.816;2023-03-17T11:36:32;8.60;99.90
3921;DHT22;1975;49.356;6.816;2023-03-17T11:39:16;9.10;99.90
3921;DHT22;1975;49.356;6.816;2023-03-17T11:42:08;9.30;99.90
3921;DHT22;1975;49.356;6.816;2023-03-17T11:49:38;10.00;99.90
3921;DHT22;1975;49.356;6.816;2023-03-17T11:54:46;9.80;99.90
3921;DHT22;1975;49.356;6.816;2023-03-17T11:59:41;10.20;99.90
3921;DHT22;1975;49.356;6.816;2023-03-17T12:04:51;10.40;99.90
3921;DHT22;1975;49.356;6.816;2023-03-17T12:07:24;10.30;99.90
3921;DHT22;1975;49.356;6.816;2023-03-17T12:09:59;10.40;99.90
3921;DHT22;1975;49.356;6.816;2023-03-17T12:12:30;10.50;99.90
3921;DHT22;1975;49.356;6.816;2023-03-17T12:14:57;10.50;99.90
3921;DHT22;1975;49.356;6.816;2023-03-17T12:17:32;10.50;99.90
3921;DHT22;1975;49.356;6.816;2023-03-17T12:22:28;10.80;99.90
3921;DHT22;1975;49.356;6.816;2023-03-17T12:27:27;10.90;99.90
3921;DHT22;1975;49.356;6.816;2023-03-17T12:29:54;11.00;99.90
3921;DHT22;1975;49.356;6.816;2023-03-17T12:32:23;11.00;99.90
3921;DHT22;1975;49.356;6.816;2023-03-17T12:34:51;11.10;99.90
3921;DHT22;1975;49.356;6.816;2023-03-17T12:37:18;11.20;99.90
3921;DHT22;1975;49.356;6.816;2023-03-17T12:39:50;11.30;99.90
3921;DHT22;1975;49.356;6.816;2023-03-17T12:42:23;11.50;99.90
3921;DHT22;1975;49.356;6.816;2023-03-17T12:47:28;11.30;99.90
3921;DHT22;1975;49.356;6.816;2023-03-17T12:54:54;11.30;99.90
3921;DHT22;1975;49.356;6.816;2023-03-17T12:57:21;11.50;99.90
3921;DHT22;1975;49.356;6.816;2023-03-17T12:59:48;11.50;99.90
3921;DHT22;1975;49.356;6.816;2023-03-17T13:02:16;11.40;99.90
3921;DHT22;1975;49.356;6.816;2023-03-17T13:04:49;11.40;99.90
3921;DHT22;1975;49.356;6.816;2023-03-17T13:07:23;11.30;99.90
3921;DHT22;1975;49.356;6.816;2023-03-17T13:15:14;11.30;99.90
3921;DHT22;1975;49.356;6.816;2023-03-17T13:17:45;11.50;99.90
3921;DHT22;1975;49.356;6.816;2023-03-17T13:20:15;11.60;99.90
3921;DHT22;1975;49.356;6.816;2023-03-17T13:22:59;11.60;99.90
3921;DHT22;1975;49.356;6.816;2023-03-17T13:25:32;11.80;99.90
3921;DHT22;1975;49.356;6.816;2023-03-17T13:28:43;11.80;99.90
3921;DHT22;1975;49.356;6.816;2023-03-17T13:30:53;11.70;99.90
3921;DHT22;1975;49.356;6.816;2023-03-17T13:33:19;11.80;99.90
3921;DHT22;1975;49.356;6.816;2023-03-17T13:38:45;11.90;99.90
3921;DHT22;1975;49.356;6.816;2023-03-17T13:46:25;11.80;99.90
3921;DHT22;1975;49.356;6.816;2023-03-17T13:48:53;11.70;99.90
3921;DHT22;1975;49.356;6.816;2023-03-17T13:51:20;11.80;99.90
3921;DHT22;1975;49.356;6.816;2023-03-17T13:53:48;11.90;99.90
3921;DHT22;1975;49.356;6.816;2023-03-17T13:59:04;12.30;99.90
3921;DHT22;1975;49.356;6.816;2023-03-17T14:01:34;12.20;99.90
3921;DHT22;1975;49.356;6.816;2023-03-17T14:04:02;12.50;99.90
3921;DHT22;1975;49.356;6.816;2023-03-17T14:06:29;12.40;99.90
3921;DHT22;1975;49.356;6.816;2023-03-17T14:09:20;12.40;99.90
3921;DHT22;1975;49.356;6.816;2023-03-17T14:11:41;12.30;99.90
3921;DHT22;1975;49.356;6.816;2023-03-17T14:14:22;12.40;99.90
3921;DHT22;1975;49.356;6.816;2023-03-17T14:17:15;12.40;99.90
3921;DHT22;1975;49.356;6.816;2023-03-17T14:19:38;12.30;99.90
3921;DHT22;1975;49.356;6.816;2023-03-17T14:22:19;12.40;99.90
3921;DHT22;1975;49.356;6.816;2023-03-17T14:24:45;12.40;99.90
3921;DHT22;1975;49.356;6.816;2023-03-17T14:27:14;12.40;99.90
3921;DHT22;1975;49.356;6.816;2023-03-17T14:29:40;12.30;99.90
3921;DHT22;1975;49.356;6.816;2023-03-17T14:32:10;12.50;99.90
3921;DHT22;1975;49.356;6.816;2023-03-17T14:37:08;12.50;99.90
3921;DHT22;1975;49.356;6.816;2023-03-17T14:39:35;12.50;99.90
3921;DHT22;1975;49.356;6.816;2023-03-17T14:42:07;12.50;99.90
3921;DHT22;1975;49.356;6.816;2023-03-17T14:44:37;12.50;99.90
3921;DHT22;1975;49.356;6.816;2023-03-17T14:47:03;12.50;99.90
3921;DHT22;1975;49.356;6.816;2023-03-17T14:49:30;12.50;99.90
3921;DHT22;1975;49.356;6.816;2023-03-17T14:51:57;12.50;99.90
3921;DHT22;1975;49.356;6.816;2023-03-17T14:54:24;12.40;99.90
3921;DHT22;1975;49.356;6.816;2023-03-17T14:56:51;12.40;99.90
3921;DHT22;1975;49.356;6.816;2023-03-17T14:59:19;12.30;99.90
3921;DHT22;1975;49.356;6.816;2023-03-17T15:01:46;12.40;99.90
3921;DHT22;1975;49.356;6.816;2023-03-17T15:04:20;12.50;99.90
3921;DHT22;1975;49.356;6.816;2023-03-17T15:11:43;12.70;99.90
3921;DHT22;1975;49.356;6.816;2023-03-17T15:14:13;12.50;99.90
3921;DHT22;1975;49.356;6.816;2023-03-17T15:16:39;12.60;99.90
3921;DHT22;1975;49.356;6.816;2023-03-17T15:21:34;12.70;99.90
3921;DHT22;1975;49.356;6.816;2023-03-17T15:24:03;12.60;99.90
3921;DHT22;1975;49.356;6.816;2023-03-17T15:26:29;12.70;99.90
3921;DHT22;1975;49.356;6.816;2023-03-17T15:28:58;12.70;99.90
3921;DHT22;1975;49.356;6.816;2023-03-17T15:31:24;12.70;99.90
3921;DHT22;1975;49.356;6.816;2023-03-17T15:33:53;12.70;99.90
3921;DHT22;1975;49.356;6.816;2023-03-17T15:36:19;12.60;99.90
3921;DHT22;1975;49.356;6.816;2023-03-17T15:38:44;12.50;99.90
3921;DHT22;1975;49.356;6.816;2023-03-17T15:41:10;12.70;99.90
3921;DHT22;1975;49.356;6.816;2023-03-17T15:43:35;12.60;99.90
3921;DHT22;1975;49.356;6.816;2023-03-17T15:46:02;12.60;99.90
3921;DHT22;1975;49.356;6.816;2023-03-17T15:48:29;12.70;99.90
3921;DHT22;1975;49.356;6.816;2023-03-17T15:50:55;12.50;99.90
3921;DHT22;1975;49.356;6.816;2023-03-17T15:53:22;12.50;99.90
3921;DHT22;1975;49.356;6.816;2023-03-17T15:55:48;12.50;99.90
3921;DHT22;1975;49.356;6.816;2023-03-17T15:58:13;12.50;99.90
3921;DHT22;1975;49.356;6.816;2023-03-17T16:00:39;12.50;99.90
3921;DHT22;1975;49.356;6.816;2023-03-17T16:05:37;12.50;99.90
3921;DHT22;1975;49.356;6.816;2023-03-17T16:08:02;12.60;99.90
3921;DHT22;1975;49.356;6.816;2023-03-17T16:10:29;12.50;99.90
3921;DHT22;1975;49.356;6.816;2023-03-17T16:12:55;12.60;99.90
3921;DHT22;1975;49.356;6.816;2023-03-17T16:15:25;12.60;99.90
3921;DHT22;1975;49.356;6.816;2023-03-17T16:17:52;12.60;99.90
3921;DHT22;1975;49.356;6.816;2023-03-17T16:20:25;12.60;99.90
3921;DHT22;1975;49.356;6.816;2023-03-17T16:22:55;12.50;99.90
3921;DHT22;1975;49.356;6.816;2023-03-17T16:27:49;12.60;99.90
3921;DHT22;1975;49.356;6.816;2023-03-17T16:30:16;12.60;99.90
3921;DHT22;1975;49.356;6.816;2023-03-17T16:32:42;12.60;99.90
3921;DHT22;1975;49.356;6.816;2023-03-17T16:35:15;12.70;99.90
3921;DHT22;1975;49.356;6.816;2023-03-17T16:37:41;12.70;99.90
3921;DHT22;1975;49.356;6.816;2023-03-17T16:40:15;12.70;99.90
3921;DHT22;1975;49.356;6.816;2023-03-17T16:42:40;12.80;99.90
3921;DHT22;1975;49.356;6.816;2023-03-17T16:45:12;12.70;99.90
3921;DHT22;1975;49.356;6.816;2023-03-17T16:47:38;12.90;99.90
3921;DHT22;1975;49.356;6.816;2023-03-17T16:50:09;12.80;99.90
3921;DHT22;1975;49.356;6.816;2023-03-17T16:52:37;12.70;99.90
3921;DHT22;1975;49.356;6.816;2023-03-17T16:55:03;12.70;99.90
3921;DHT22;1975;49.356;6.816;2023-03-17T16:57:29;12.70;99.90
3921;DHT22;1975;49.356;6.816;2023-03-17T16:59:54;12.70;99.90
3921;DHT22;1975;49.356;6.816;2023-03-17T17:02:21;12.60;99.90
3921;DHT22;1975;49.356;6.816;2023-03-17T17:04:46;12.60;99.90
3921;DHT22;1975;49.356;6.816;2023-03-17T17:07:12;12.60;99.90
3921;DHT22;1975;49.356;6.816;2023-03-17T17:09:37;12.50;99.90
3921;DHT22;1975;49.356;6.816;2023-03-17T17:12:03;12.50;99.90
3921;DHT22;1975;49.356;6.816;2023-03-17T17:14:28;12.50;99.90
3921;DHT22;1975;49.356;6.816;2023-03-17T17:16:54;12.40;99.90
3921;DHT22;1975;49.356;6.816;2023-03-17T17:19:19;12.40;99.90
3921;DHT22;1975;49.356;6.816;2023-03-17T17:21:45;12.40;99.90
3921;DHT22;1975;49.356;6.816;2023-03-17T17:24:11;12.40;99.90
3921;DHT22;1975;49.356;6.816;2023-03-17T17:26:36;12.30;99.90
3921;DHT22;1975;49.356;6.816;2023-03-17T17:29:02;12.30;99.90
3921;DHT22;1975;49.356;6.816;2023-03-17T17:31:27;12.30;99.90